Snoqualmie, Washington
Current Conditions -  °F | °C
As of 4:53 PM on Friday 24 Oct 2014 (Local Time) from KRNT Reporting Station
Clear Clear  
Wind Chill: 57°   Ceiling: Unl
Heat Index: 57°   Visibility: 10mi
Dew Point: 49°   Wind: 5mph
Humidity: 74%   Direction: 350°N
Pressure: 29.88"   Gusts: NA
Location:  47.53°N, 121.83°W
Report Text: KRNT 242353Z 35004KT 10SM CLR 14/09 A2988 RMK AO2 SLP124 T01390094 10144 20111 58027
Loading
Personal Weather Stations






























Interactive Weather Map
Tropical Storm Tracking
New forecast layout! Learn more

10-Day Weather Forecast

Advertisements
Track Severe Weather on mobile